METAR Formatted Surface Weather Observation
Issued by NWS

Home | Current Version | Previous Version | Text Only | Print | Product List | Glossary On
Versions: 1
080
SAUS42 KTAE 200515 COR
MTR1J0
METAR K1J0 200458Z AUTO 00000KT 10SM FEW048 26/26 A3010 RMK AO2
SLP149 T02560256 $



USA.gov is the U.S. government's official web portal to all federal, state and local government web resources and services.